Parana, Argentina
Current Conditions -  °F | °C
As of 7:00 PM on Wednesday 26 Nov 2014 (Local Time) from SAAR Reporting Station
Clear Clear  
Wind Chill: 77°   Ceiling: Unl
Heat Index: 79°   Visibility: 6mi
Dew Point: 55°   Wind: 7mph
Humidity: 47%   Direction: 70°ENE
Pressure: 29.88"   Gusts: NA
Location:  31.5°S, 60.8°W
Report Text: SAAR 262200Z 07006KT CAVOK 25/13 Q1012
Loading
Personal Weather Stations






























Interactive Weather Map New forecast layout! Learn more

10-Day Weather Forecast

Advertisements
Track Severe Weather on mobile